createdAt,value
2023-02-25T00:02:04.024Z,2.01
2023-02-25T00:05:47.755Z,1.57
2023-02-25T00:09:31.852Z,1.60
2023-02-25T00:13:18.397Z,1.69
2023-02-25T00:17:02.152Z,1.66
2023-02-25T00:20:44.927Z,1.57
2023-02-25T00:24:28.222Z,1.61
2023-02-25T00:28:12.339Z,1.72
2023-02-25T00:31:55.155Z,1.71
2023-02-25T00:35:39.843Z,1.68
2023-02-25T00:39:24.066Z,1.73
2023-02-25T00:43:07.382Z,1.77
2023-02-25T00:46:51.539Z,1.78
2023-02-25T00:50:34.547Z,1.78
2023-02-25T00:54:17.305Z,1.84
2023-02-25T00:58:00.942Z,1.81
2023-02-25T01:01:44.126Z,1.79
2023-02-25T01:05:28.303Z,1.74
2023-02-25T01:09:13.879Z,1.73
2023-02-25T01:12:56.645Z,1.76
2023-02-25T01:16:39.811Z,1.75
2023-02-25T01:20:24.194Z,1.79
2023-02-25T01:24:09.672Z,1.88
2023-02-25T01:27:55.507Z,2.00
2023-02-25T01:31:38.461Z,2.00
2023-02-25T01:35:21.561Z,2.05
2023-02-25T01:39:09.895Z,2.01
2023-02-25T01:42:54.407Z,2.07
2023-02-25T01:46:40.695Z,1.95
2023-02-25T01:50:25.808Z,1.95
2023-02-25T01:54:10.318Z,1.92
2023-02-25T01:57:54.898Z,1.79
2023-02-25T02:01:40.027Z,1.78
2023-02-25T02:05:25.242Z,1.79
2023-02-25T02:09:10.779Z,1.59
2023-02-25T02:12:55.105Z,1.45
2023-02-25T02:17:06.576Z,1.52
2023-02-25T02:21:02.071Z,1.52
2023-02-25T02:24:56.854Z,1.50
2023-02-25T02:29:07.613Z,1.46
2023-02-25T02:32:54.569Z,1.51
2023-02-25T02:36:50.633Z,1.51
2023-02-25T02:40:41.936Z,1.43
2023-02-25T02:44:29.655Z,1.35
2023-02-25T02:48:15.436Z,1.43
2023-02-25T02:52:02.234Z,1.36
2023-02-25T02:55:48.252Z,1.43
2023-02-25T02:59:34.462Z,1.33
2023-02-25T03:03:20.941Z,1.33
2023-02-25T03:07:05.883Z,1.41
2023-02-25T03:10:48.637Z,1.39
2023-02-25T03:14:31.396Z,1.42
2023-02-25T03:18:19.723Z,1.44
2023-02-25T03:22:07.959Z,1.42
2023-02-25T03:25:53.209Z,1.43
2023-02-25T03:29:35.903Z,1.41
2023-02-25T03:33:27.977Z,1.36
2023-02-25T03:37:15.635Z,1.29
2023-02-25T03:41:01.620Z,1.34
2023-02-25T03:44:47.634Z,1.31
2023-02-25T03:48:32.400Z,1.38
2023-02-25T03:52:19.012Z,1.37
2023-02-25T03:56:05.329Z,1.42
2023-02-25T03:59:49.139Z,1.54
2023-02-25T04:03:33.142Z,1.51
2023-02-25T04:07:16.091Z,1.53
2023-02-25T04:11:01.177Z,1.55
2023-02-25T04:14:43.818Z,1.51
2023-02-25T04:18:26.624Z,1.42
2023-02-25T04:22:10.663Z,1.43
2023-02-25T04:25:53.304Z,1.62
2023-02-25T04:29:35.958Z,1.55
2023-02-25T04:33:18.698Z,1.51
2023-02-25T04:37:02.277Z,1.50
2023-02-25T04:40:46.343Z,1.41
2023-02-25T04:44:29.062Z,1.45
2023-02-25T04:48:11.885Z,1.46
2023-02-25T04:51:54.531Z,1.41
2023-02-25T04:55:37.165Z,1.49
2023-02-25T04:59:21.269Z,1.45
2023-02-25T05:03:04.097Z,1.42
2023-02-25T05:06:46.773Z,1.50
2023-02-25T05:10:29.454Z,1.52
2023-02-25T05:14:12.116Z,1.55
2023-02-25T05:17:56.270Z,1.51
2023-02-25T05:21:40.116Z,1.49
2023-02-25T05:25:22.807Z,1.51
2023-02-25T05:29:05.830Z,1.49
2023-02-25T05:32:48.672Z,1.43
2023-02-25T05:36:32.790Z,1.48
2023-02-25T05:40:15.883Z,1.51
2023-02-25T05:43:58.928Z,1.49
2023-02-25T05:47:41.558Z,1.49
2023-02-25T05:51:24.286Z,1.55
2023-02-25T05:55:10.070Z,1.57
2023-02-25T05:58:52.827Z,1.56
2023-02-25T06:02:35.755Z,1.63
2023-02-25T06:06:23.079Z,1.60
2023-02-25T06:10:08.500Z,1.64
2023-02-25T06:13:51.500Z,1.66
2023-02-25T06:17:34.241Z,1.62
2023-02-25T06:21:17.089Z,1.56
2023-02-25T06:24:59.885Z,1.57
2023-02-25T06:28:44.170Z,1.49
2023-02-25T06:32:27.002Z,1.57
2023-02-25T06:36:10.259Z,1.62
2023-02-25T06:39:53.460Z,1.68
2023-02-25T06:43:36.570Z,1.71
2023-02-25T06:47:23.084Z,1.77
2023-02-25T06:51:09.293Z,1.75
2023-02-25T06:54:52.234Z,1.73
2023-02-25T06:58:35.293Z,1.74
2023-02-25T07:02:18.125Z,1.72
2023-02-25T07:06:02.183Z,1.73
2023-02-25T07:09:44.839Z,1.78
2023-02-25T07:13:27.473Z,1.86
2023-02-25T07:17:10.140Z,1.89
2023-02-25T07:20:52.772Z,1.95
2023-02-25T07:24:37.181Z,1.98
2023-02-25T07:28:20.044Z,2.09
2023-02-25T07:32:02.819Z,2.06
2023-02-25T07:35:45.550Z,2.09
2023-02-25T07:39:28.245Z,2.06
2023-02-25T07:43:12.223Z,2.14
2023-02-25T07:46:54.869Z,2.19
2023-02-25T07:50:37.533Z,2.34
2023-02-25T07:54:21.223Z,2.35
2023-02-25T07:58:05.318Z,2.32
2023-02-25T08:01:50.943Z,2.40
2023-02-25T08:05:34.987Z,2.46
2023-02-25T08:09:17.659Z,2.31
2023-02-25T08:13:00.287Z,2.40
2023-02-25T08:16:42.913Z,2.28
2023-02-25T08:20:26.869Z,2.23
2023-02-25T08:24:10.066Z,2.25
2023-02-25T08:27:53.078Z,2.31
2023-02-25T08:31:35.842Z,2.40
2023-02-25T08:35:18.742Z,2.36
2023-02-25T08:39:02.732Z,2.42
2023-02-25T08:42:45.378Z,2.52
2023-02-25T08:46:29.688Z,2.51
2023-02-25T08:50:12.890Z,2.51
2023-02-25T08:53:55.548Z,2.61
2023-02-25T08:57:39.568Z,2.59
2023-02-25T09:01:23.618Z,2.54
2023-02-25T09:05:07.215Z,2.69
2023-02-25T09:08:51.648Z,2.61
2023-02-25T09:12:36.235Z,2.69
2023-02-25T09:16:20.601Z,2.50
2023-02-25T09:20:07.001Z,2.48
2023-02-25T09:23:51.257Z,2.59
2023-02-25T09:27:34.061Z,2.66
2023-02-25T09:31:17.180Z,2.54
2023-02-25T09:35:06.488Z,2.56
2023-02-25T09:38:50.368Z,2.57
2023-02-25T09:42:44.447Z,2.44
2023-02-25T09:46:28.290Z,2.36
2023-02-25T09:50:14.888Z,2.45
2023-02-25T09:54:06.396Z,2.58
2023-02-25T09:57:58.796Z,2.62
2023-02-25T10:01:45.473Z,2.70
2023-02-25T10:05:39.183Z,2.61
2023-02-25T10:09:28.690Z,2.54
2023-02-25T10:13:21.666Z,2.62
2023-02-25T10:17:09.992Z,2.59
2023-02-25T10:21:00.035Z,2.59
2023-02-25T10:24:45.414Z,2.61
2023-02-25T10:28:29.331Z,2.54
2023-02-25T10:32:19.313Z,2.59
2023-02-25T10:36:08.877Z,2.68
2023-02-25T10:39:54.570Z,2.73
2023-02-25T10:43:37.339Z,2.80
2023-02-25T10:47:27.466Z,2.78
2023-02-25T10:51:13.773Z,2.77
2023-02-25T10:54:56.484Z,2.86
2023-02-25T10:58:41.721Z,3.06
2023-02-25T11:02:25.953Z,3.12
2023-02-25T11:06:13.319Z,3.26
2023-02-25T11:10:13.354Z,3.40
2023-02-25T11:14:05.225Z,3.52
2023-02-25T11:17:47.926Z,3.49
2023-02-25T11:21:38.104Z,3.44
2023-02-25T11:25:25.843Z,3.69
2023-02-25T11:29:11.434Z,3.81
2023-02-25T11:32:56.242Z,3.95
2023-02-25T11:36:40.755Z,4.01
2023-02-25T11:40:27.616Z,3.98
2023-02-25T11:44:29.169Z,3.77
2023-02-25T11:48:19.546Z,3.68
2023-02-25T11:52:08.653Z,3.74
2023-02-25T11:56:00.377Z,3.61
2023-02-25T11:59:49.890Z,3.63
2023-02-25T12:04:01.256Z,3.55
2023-02-25T12:08:12.610Z,3.46
2023-02-25T12:12:29.730Z,3.57
2023-02-25T12:16:39.621Z,3.64
2023-02-25T12:20:38.499Z,3.68
2023-02-25T12:24:36.012Z,3.61
2023-02-25T12:28:30.364Z,3.56
2023-02-25T12:32:26.568Z,3.71
2023-02-25T12:36:27.414Z,4.08
2023-02-25T12:40:31.212Z,4.52
2023-02-25T12:44:45.304Z,4.81
2023-02-25T12:48:40.284Z,4.86
2023-02-25T12:52:35.573Z,4.59
2023-02-25T12:56:30.358Z,4.40
2023-02-25T13:00:30.762Z,4.01
2023-02-25T13:04:38.262Z,4.01
2023-02-25T13:08:40.773Z,4.24
2023-02-25T13:12:38.496Z,4.02
2023-02-25T13:16:28.737Z,4.07
2023-02-25T13:20:42.071Z,4.26
2023-02-25T13:24:37.859Z,4.56
2023-02-25T13:28:37.304Z,4.52
2023-02-25T13:32:27.638Z,4.78
2023-02-25T13:36:22.452Z,5.31
2023-02-25T13:40:35.902Z,5.58
2023-02-25T13:44:46.901Z,5.54
2023-02-25T13:48:52.806Z,5.33
2023-02-25T13:52:44.735Z,5.26
2023-02-25T13:57:03.240Z,5.43
2023-02-25T14:01:05.550Z,5.32
2023-02-25T14:05:03.584Z,4.93
2023-02-25T14:09:04.672Z,4.70
2023-02-25T14:13:02.068Z,4.56
2023-02-25T14:17:09.651Z,4.28
2023-02-25T14:21:03.089Z,4.55
2023-02-25T14:24:48.302Z,4.66
2023-02-25T14:28:36.722Z,4.87
2023-02-25T14:32:32.854Z,4.97
2023-02-25T14:36:30.937Z,4.31
2023-02-25T14:40:33.150Z,4.07
2023-02-25T14:44:18.920Z,4.02
2023-02-25T14:48:05.352Z,3.84
2023-02-25T14:52:00.999Z,3.82
2023-02-25T14:56:13.182Z,3.47
2023-02-25T15:00:11.891Z,3.35
2023-02-25T15:04:37.965Z,3.41
2023-02-25T15:08:37.855Z,3.25
2023-02-25T15:12:33.519Z,3.26
2023-02-25T15:16:29.222Z,3.33
2023-02-25T15:20:23.485Z,3.31
2023-02-25T15:24:11.155Z,3.32
2023-02-25T15:27:56.754Z,3.27
2023-02-25T15:31:41.654Z,3.36
2023-02-25T15:35:53.116Z,3.38
2023-02-25T15:39:50.057Z,3.32
2023-02-25T15:43:44.477Z,3.27
2023-02-25T15:47:31.056Z,3.25
2023-02-25T15:51:40.939Z,3.32
2023-02-25T15:55:39.857Z,3.36
2023-02-25T15:59:45.100Z,3.09
2023-02-25T16:03:42.049Z,3.01
2023-02-25T16:07:32.230Z,2.94
2023-02-25T16:11:27.599Z,2.93
2023-02-25T16:15:15.192Z,2.98
2023-02-25T16:18:58.959Z,2.95
2023-02-25T16:22:45.720Z,3.00
2023-02-25T16:26:39.260Z,3.02
2023-02-25T16:30:25.352Z,3.02
2023-02-25T16:34:13.448Z,2.99
2023-02-25T16:38:04.208Z,2.88
2023-02-25T16:41:47.165Z,2.92
2023-02-25T16:45:31.627Z,2.91
2023-02-25T16:49:21.171Z,2.90
2023-02-25T16:53:05.358Z,2.82
2023-02-25T16:56:50.205Z,2.82
2023-02-25T17:00:33.658Z,2.78
2023-02-25T17:04:19.710Z,2.81
2023-02-25T17:08:04.245Z,2.83
2023-02-25T17:11:52.063Z,2.83
2023-02-25T17:15:37.833Z,2.80
2023-02-25T17:19:21.496Z,2.80
2023-02-25T17:23:07.749Z,2.78
2023-02-25T17:26:53.467Z,2.76
2023-02-25T17:30:39.294Z,2.65
2023-02-25T17:34:27.265Z,2.62
2023-02-25T17:38:14.030Z,2.61
2023-02-25T17:41:58.249Z,2.62
2023-02-25T17:45:42.584Z,2.61
2023-02-25T17:49:28.493Z,2.56
2023-02-25T17:53:29.538Z,2.52
2023-02-25T17:57:17.161Z,2.50
2023-02-25T18:01:02.832Z,1.89
2023-02-25T18:04:45.528Z,1.40
2023-02-25T18:08:30.004Z,1.19
2023-02-25T18:12:22.745Z,0.90
2023-02-25T18:16:33.392Z,0.76
2023-02-25T18:20:28.680Z,0.63
2023-02-25T18:24:23.671Z,0.49
2023-02-25T18:28:11.842Z,0.32
2023-02-25T18:31:54.607Z,0.30
2023-02-25T18:35:39.869Z,0.34
2023-02-25T18:39:23.652Z,0.37
2023-02-25T18:43:08.307Z,0.44
2023-02-25T18:46:50.910Z,0.47
2023-02-25T18:50:34.115Z,0.45
2023-02-25T18:54:17.426Z,0.49
2023-02-25T18:58:01.106Z,0.60
2023-02-25T19:01:45.501Z,0.59
2023-02-25T19:05:29.709Z,0.51
2023-02-25T19:09:12.364Z,0.48
2023-02-25T19:12:59.782Z,0.50
2023-02-25T19:16:42.490Z,0.57
2023-02-25T19:20:26.582Z,0.52
2023-02-25T19:24:12.746Z,0.55
2023-02-25T19:27:56.782Z,0.65
2023-02-25T19:31:39.501Z,0.56
2023-02-25T19:35:22.354Z,0.54
2023-02-25T19:39:06.632Z,0.61
2023-02-25T19:42:50.141Z,0.66
2023-02-25T19:46:32.863Z,0.71
2023-02-25T19:50:17.178Z,0.82
2023-02-25T19:53:59.846Z,0.78
2023-02-25T19:57:44.101Z,0.88
2023-02-25T20:01:27.640Z,0.88
2023-02-25T20:05:11.332Z,0.84
2023-02-25T20:08:55.819Z,0.81
2023-02-25T20:12:38.572Z,0.85
2023-02-25T20:16:24.245Z,0.79
2023-02-25T20:20:08.882Z,0.67
2023-02-25T20:23:51.924Z,0.61
2023-02-25T20:27:36.971Z,0.55
2023-02-25T20:31:20.305Z,0.50
2023-02-25T20:35:05.135Z,0.52
2023-02-25T20:38:57.737Z,0.46
2023-02-25T20:42:40.685Z,0.44
2023-02-25T20:46:26.301Z,0.41
2023-02-25T20:50:13.955Z,0.33
2023-02-25T20:53:57.246Z,0.26
2023-02-25T20:57:39.904Z,0.13
2023-02-25T21:01:22.844Z,-0.10
2023-02-25T21:05:06.098Z,-0.30
2023-02-25T21:08:50.207Z,-0.35
2023-02-25T21:12:32.850Z,-0.43
2023-02-25T21:16:16.831Z,-0.38
2023-02-25T21:19:59.539Z,-0.28
2023-02-25T21:23:42.856Z,-0.16
2023-02-25T21:27:28.192Z,-0.13
2023-02-25T21:31:12.737Z,-0.03
2023-02-25T21:34:55.449Z,0.15
2023-02-25T21:38:38.568Z,0.16
2023-02-25T21:42:21.654Z,0.16
2023-02-25T21:46:07.931Z,0.19
2023-02-25T21:49:51.391Z,0.10
2023-02-25T21:53:34.372Z,0.03
2023-02-25T21:57:17.068Z,0.07
2023-02-25T22:00:59.807Z,-0.05
2023-02-25T22:04:43.936Z,0.05
2023-02-25T22:08:26.606Z,0.06
2023-02-25T22:12:09.277Z,-0.04
2023-02-25T22:15:51.986Z,-0.13
2023-02-25T22:19:49.902Z,-0.21
2023-02-25T22:23:33.944Z,-0.34
2023-02-25T22:27:16.626Z,-0.35
2023-02-25T22:30:59.503Z,-0.38
2023-02-25T22:34:42.329Z,-0.27
2023-02-25T22:38:25.428Z,-0.33
2023-02-25T22:42:09.477Z,-0.49
2023-02-25T22:45:52.155Z,-0.63
2023-02-25T22:49:34.899Z,-0.67
2023-02-25T22:53:18.105Z,-0.73
2023-02-25T22:57:00.738Z,-0.73
2023-02-25T23:00:44.809Z,-0.71
2023-02-25T23:04:27.922Z,-0.67
2023-02-25T23:08:10.639Z,-0.56
2023-02-25T23:11:54.545Z,-0.51
2023-02-25T23:15:38.781Z,-0.51
2023-02-25T23:19:22.895Z,-0.55
2023-02-25T23:23:09.552Z,-0.52
2023-02-25T23:26:54.216Z,-0.54
2023-02-25T23:30:38.000Z,-0.54
2023-02-25T23:34:26.125Z,-0.54
2023-02-25T23:38:09.438Z,-0.69
2023-02-25T23:41:52.289Z,-0.61
2023-02-25T23:45:35.006Z,-0.52
2023-02-25T23:49:20.207Z,-0.48
2023-02-25T23:53:06.889Z,-0.44
2023-02-25T23:56:51.859Z,-0.39
